Time;durP1;ratioP1;P1;durP2;ratioP2;P2;SDS_P1;SDS_P2;PMS_P1;PMS_P2;Temp;Humidity;BMP_temperature;BMP_pressure;BME280_temperature;BME280_humidity;BME280_pressure;Samples;Min_cycle;Max_cycle;Signal;HPM_P1;HPM_P2
2023/03/27 00:08:52;;;;;;;3.38;0.68;;;5.30;99.90;;;;;;20910807;28;20079;-78
2023/03/27 00:18:53;;;;;;;3.08;0.90;;;5.30;99.90;;;;;;20909391;28;20126;-77
2023/03/27 00:28:54;;;;;;;1.25;0.80;;;5.20;99.90;;;;;;20907553;28;20095;-78
2023/03/27 00:38:55;;;;;;;2.08;0.90;;;5.20;99.90;;;;;;20911416;28;20029;-77
2023/03/27 00:48:59;;;;;;;0.80;0.70;;;5.30;99.90;;;;;;20910910;28;20037;-78
2023/03/27 00:59:05;;;;;;;6.00;0.85;;;5.40;99.90;;;;;;20905682;28;20404;-77
2023/03/27 01:09:08;;;;;;;4.05;1.20;;;5.40;99.90;;;;;;20904828;28;20063;-78
2023/03/27 01:19:37;;;;;;;4.75;1.10;;;5.40;99.90;;;;;;20921470;28;20033;-79
2023/03/27 01:29:49;;;;;;;5.93;1.23;;;5.50;99.90;;;;;;20911699;28;20044;-77
2023/03/27 01:40:08;;;;;;;4.78;1.40;;;5.50;99.90;;;;;;20921679;28;20037;-78
2023/03/27 01:50:35;;;;;;;1.73;1.25;;;5.50;99.90;;;;;;20918636;28;20064;-78
2023/03/27 02:00:38;;;;;;;1.80;0.85;;;5.50;99.90;;;;;;20900989;28;20044;-77
2023/03/27 02:10:48;;;;;;;1.27;1.00;;;5.50;99.90;;;;;;20917522;28;20040;-78
2023/03/27 02:20:49;;;;;;;5.20;1.20;;;5.40;99.90;;;;;;20916851;28;20044;-78
2023/03/27 02:31:28;;;;;;;5.43;1.35;;;5.40;99.90;;;;;;20914845;28;20476;-78
2023/03/27 02:41:43;;;;;;;6.00;1.25;;;5.30;99.90;;;;;;20883641;28;20144;-78
2023/03/27 02:52:16;;;;;;;2.53;1.40;;;5.30;99.90;;;;;;20917102;28;20033;-78
2023/03/27 03:02:23;;;;;;;6.35;1.58;;;5.30;99.90;;;;;;20914544;28;20025;-78
2023/03/27 03:12:32;;;;;;;3.65;1.77;;;5.30;99.90;;;;;;20913960;28;20025;-78
2023/03/27 03:22:33;;;;;;;2.33;1.45;;;5.30;99.90;;;;;;20912590;28;20056;-78
2023/03/27 03:32:34;;;;;;;3.80;1.67;;;5.30;99.90;;;;;;20850014;28;20022;-78
2023/03/27 03:42:35;;;;;;;3.85;1.77;;;5.20;99.90;;;;;;20827368;28;20026;-77
2023/03/27 03:52:38;;;;;;;4.25;1.75;;;5.10;99.90;;;;;;20829509;28;20033;-78
2023/03/27 04:02:40;;;;;;;7.40;2.45;;;5.10;99.90;;;;;;20910156;28;20031;-76
2023/03/27 04:12:48;;;;;;;3.92;2.42;;;5.20;99.90;;;;;;20911984;28;20041;-77
2023/03/27 04:23:01;;;;;;;4.95;2.20;;;5.20;99.90;;;;;;20882991;28;20030;-78
2023/03/27 04:33:03;;;;;;;4.63;2.60;;;5.30;99.90;;;;;;20859078;28;20025;-78
2023/03/27 04:43:27;;;;;;;3.35;2.25;;;5.30;99.90;;;;;;20919546;28;20029;-77
2023/03/27 04:53:30;;;;;;;0.82;0.57;;;5.40;99.90;;;;;;20946438;28;20510;-79
2023/03/27 05:03:33;;;;;;;2.45;0.40;;;5.40;99.90;;;;;;20955092;28;20032;-77
2023/03/27 05:14:00;;;;;;;0.38;0.38;;;5.30;99.90;;;;;;20971461;28;20043;-79
2023/03/27 05:24:03;;;;;;;1.92;1.15;;;5.10;99.90;;;;;;20971539;28;20051;-79
2023/03/27 05:34:04;;;;;;;2.25;1.10;;;4.90;99.90;;;;;;20888298;28;20037;-80
2023/03/27 05:44:07;;;;;;;3.33;2.00;;;4.90;99.90;;;;;;20829864;28;20025;-80
2023/03/27 05:54:11;;;;;;;7.05;2.38;;;4.90;99.90;;;;;;20925607;28;20127;-80
2023/03/27 06:04:34;;;;;;;4.07;2.20;;;5.00;99.90;;;;;;20933237;28;20064;-78
2023/03/27 06:14:45;;;;;;;3.58;1.63;;;5.00;99.90;;;;;;20923689;28;20029;-79
2023/03/27 06:25:06;;;;;;;;;;;5.50;99.90;;;;;;20922699;28;20095;-79
2023/03/27 06:35:08;;;;;;;6.53;2.53;;;5.20;99.90;;;;;;20906922;28;19912;-79
2023/03/27 06:45:32;;;;;;;;;;;5.10;99.90;;;;;;20921040;28;20057;-79
2023/03/27 06:55:59;;;;;;;8.05;3.35;;;5.10;99.90;;;;;;20889230;28;19912;-79
2023/03/27 07:06:04;;;;;;;6.28;2.70;;;5.20;99.90;;;;;;20920061;28;20033;-79
2023/03/27 07:16:24;;;;;;;5.70;2.15;;;5.60;99.90;;;;;;20919745;28;20033;-80
2023/03/27 07:26:26;;;;;;;9.35;3.35;;;6.50;99.90;;;;;;20921501;28;20029;-79
2023/03/27 07:36:35;;;;;;;6.22;3.08;;;5.20;99.90;;;;;;20918365;28;20529;-79
2023/03/27 07:46:40;;;;;;;7.90;3.78;;;5.20;99.90;;;;;;20924744;28;20029;-79
2023/03/27 07:56:41;;;;;;;4.82;2.92;;;5.10;99.90;;;;;;20915862;28;20028;-78
2023/03/27 08:07:05;;;;;;;6.70;3.35;;;5.00;99.90;;;;;;20887331;28;20048;-78
2023/03/27 08:17:08;;;;;;;7.03;3.33;;;5.10;99.90;;;;;;20914553;28;20518;-78
2023/03/27 08:27:09;;;;;;;11.25;3.53;;;5.10;99.90;;;;;;20920434;28;20033;-79
2023/03/27 08:37:14;;;;;;;11.23;3.50;;;5.10;99.90;;;;;;20917847;28;20037;-79
2023/03/27 08:47:42;;;;;;;6.72;3.25;;;5.30;99.90;;;;;;20916203;28;20075;-79
2023/03/27 08:57:51;;;;;;;8.48;3.03;;;6.40;99.90;;;;;;20915753;28;20104;-79
2023/03/27 09:08:27;;;;;;;10.23;3.38;;;6.10;99.90;;;;;;20916071;28;20040;-79
2023/03/27 09:19:14;;;;;;;13.48;4.13;;;6.40;99.90;;;;;;20908765;28;20067;-79
2023/03/27 09:29:20;;;;;;;8.05;2.75;;;5.70;99.90;;;;;;20878502;28;20175;-79
2023/03/27 09:39:31;;;;;;;6.55;3.10;;;5.60;99.90;;;;;;20932348;28;20118;-79
2023/03/27 09:50:22;;;;;;;7.20;2.70;;;5.60;99.90;;;;;;20923686;28;20086;-78
2023/03/27 10:00:33;;;;;;;5.32;2.13;;;5.80;99.90;;;;;;20932777;28;20033;-79
2023/03/27 10:10:41;;;;;;;3.08;2.10;;;6.60;99.90;;;;;;20934537;28;20037;-79
2023/03/27 10:21:34;;;;;;;5.03;1.73;;;7.90;99.90;;;;;;20853202;28;20037;-79
2023/03/27 10:31:59;;;;;;;4.68;1.17;;;7.60;99.90;;;;;;20848428;28;20029;-79
2023/03/27 10:42:13;;;;;;;5.10;1.33;;;8.50;99.90;;;;;;20845361;28;20049;-80
2023/03/27 10:52:24;;;;;;;5.85;0.93;;;10.40;99.90;;;;;;20923192;28;20392;-78
2023/03/27 11:03:14;;;;;;;5.45;1.10;;;9.80;99.90;;;;;;20935211;28;20040;-79
2023/03/27 11:13:22;;;;;;;4.57;1.70;;;10.30;99.90;;;;;;20921228;28;20510;-79
2023/03/27 11:23:32;;;;;;;1.35;0.90;;;9.10;99.90;;;;;;20930478;28;20079;-78
2023/03/27 11:34:15;;;;;;;5.78;0.98;;;8.40;99.90;;;;;;20922581;28;20076;-78
2023/03/27 11:44:19;;;;;;;3.40;0.75;;;8.80;99.90;;;;;;20936178;28;20048;-79
2023/03/27 11:54:59;;;;;;;3.22;0.60;;;8.60;98.40;;;;;;20940444;28;20102;-79
2023/03/27 12:05:02;;;;;;;5.47;0.88;;;9.40;99.20;;;;;;20923308;28;20526;-78
2023/03/27 12:15:50;;;;;;;1.83;0.80;;;10.50;99.30;;;;;;20925663;28;20036;-78
2023/03/27 12:26:00;;;;;;;4.10;1.02;;;7.30;98.60;;;;;;20926040;28;20056;-79
2023/03/27 12:36:44;;;;;;;3.83;0.95;;;9.90;98.20;;;;;;20910567;28;20067;-79
2023/03/27 12:47:24;;;;;;;4.32;0.73;;;8.80;98.40;;;;;;20929249;28;20499;-80
2023/03/27 12:57:43;;;;;;;2.83;0.82;;;10.50;97.20;;;;;;20920826;28;20039;-78
2023/03/27 13:08:06;;;;;;;4.30;0.90;;;9.50;97.20;;;;;;20845056;28;20037;-79
2023/03/27 13:18:41;;;;;;;2.78;0.95;;;10.50;96.00;;;;;;20889651;28;20143;-79
2023/03/27 13:28:49;;;;;;;2.58;1.02;;;9.30;96.60;;;;;;20900186;28;20132;-79
2023/03/27 13:38:51;;;;;;;3.83;0.98;;;8.00;97.40;;;;;;20830438;28;20067;-79
2023/03/27 13:49:19;;;;;;;2.75;0.80;;;9.10;95.90;;;;;;20892599;28;20135;-78
2023/03/27 13:59:42;;;;;;;4.47;0.90;;;8.90;96.00;;;;;;20880282;28;20032;-79
2023/03/27 14:10:08;;;;;;;1.98;0.73;;;9.20;95.00;;;;;;20872818;28;20526;-79
2023/03/27 14:20:38;;;;;;;7.95;1.00;;;10.60;94.20;;;;;;20907700;28;20162;-79
2023/03/27 14:30:45;;;;;;;5.40;0.88;;;10.60;93.20;;;;;;20895803;28;20033;-79
2023/03/27 14:41:22;;;;;;;7.20;1.08;;;10.00;93.10;;;;;;20866669;28;20033;-79
2023/03/27 14:51:36;;;;;;;3.72;0.70;;;9.90;94.30;;;;;;20928461;28;20037;-79
2023/03/27 15:01:40;;;;;;;1.30;0.60;;;10.20;95.20;;;;;;20921208;28;20077;-79
2023/03/27 15:11:47;;;;;;;4.30;0.75;;;9.50;94.80;;;;;;20877673;28;20173;-78
2023/03/27 15:22:01;;;;;;;1.60;0.70;;;8.90;95.60;;;;;;20891818;28;20064;-78
2023/03/27 15:32:07;;;;;;;3.10;0.55;;;10.00;96.40;;;;;;20858286;28;20030;-79
2023/03/27 15:42:13;;;;;;;2.88;1.02;;;9.00;95.10;;;;;;20848428;28;20041;-80
2023/03/27 15:52:32;;;;;;;5.13;1.13;;;8.10;95.50;;;;;;20876100;28;20040;-78
2023/03/27 16:02:34;;;;;;;4.32;0.75;;;8.50;96.70;;;;;;20914984;28;20645;-78
2023/03/27 16:12:55;;;;;;;2.78;0.73;;;8.50;97.00;;;;;;20916418;28;20112;-78
2023/03/27 16:22:56;;;;;;;4.47;0.90;;;8.10;97.80;;;;;;20917771;28;20190;-79
2023/03/27 16:32:58;;;;;;;5.37;1.27;;;7.80;98.70;;;;;;20919121;28;20045;-79
2023/03/27 16:42:59;;;;;;;7.43;1.05;;;7.60;98.50;;;;;;20915493;28;20385;-78
2023/03/27 16:53:00;;;;;;;1.83;0.70;;;7.40;99.90;;;;;;20891404;28;20025;-78
2023/03/27 17:03:01;;;;;;;2.17;0.77;;;7.30;99.90;;;;;;20892009;28;20037;-79
2023/03/27 17:13:02;;;;;;;3.27;1.13;;;7.30;99.90;;;;;;20847584;28;20480;-79
2023/03/27 17:23:02;;;;;;;3.40;1.00;;;7.20;99.90;;;;;;20908824;28;20541;-79
2023/03/27 17:33:03;;;;;;;2.10;1.10;;;7.20;99.90;;;;;;20926169;28;20029;-77
2023/03/27 17:43:04;;;;;;;;;;;6.60;99.90;;;;;;20925067;28;20403;-78
2023/03/27 17:53:05;;;;;;;1.30;0.80;;;6.00;99.90;;;;;;20924626;28;19915;-78
2023/03/27 18:03:07;;;;;;;2.83;1.00;;;5.90;99.90;;;;;;20927689;28;20319;-78
2023/03/27 18:13:08;;;;;;;6.20;1.30;;;6.00;99.90;;;;;;20884841;28;20022;-79
2023/03/27 18:23:09;;;;;;;;;;;5.60;99.90;;;;;;20927455;28;20033;-78
2023/03/27 18:33:10;;;;;;;3.30;1.52;;;4.70;99.90;;;;;;20920914;28;20000;-79
2023/03/27 18:43:11;;;;;;;2.85;1.55;;;4.20;99.90;;;;;;20846000;28;20026;-79
2023/03/27 18:53:12;;;;;;;3.22;1.77;;;4.20;99.90;;;;;;20841552;28;20040;-79
2023/03/27 19:03:16;;;;;;;5.30;2.30;;;4.40;99.90;;;;;;20870281;28;20450;-77
2023/03/27 19:13:17;;;;;;;4.95;2.35;;;3.80;99.90;;;;;;20920714;28;20061;-77
2023/03/27 19:23:53;;;;;;;2.97;1.65;;;3.60;99.90;;;;;;20840646;28;20033;-77
2023/03/27 19:33:57;;;;;;;3.53;1.58;;;3.90;99.90;;;;;;20896539;28;20507;-78
2023/03/27 19:43:58;;;;;;;3.72;1.88;;;3.80;99.90;;;;;;20910666;28;20052;-77
2023/03/27 19:53:59;;;;;;;5.30;2.03;;;3.60;99.90;;;;;;20908995;28;20052;-78
2023/03/27 20:04:01;;;;;;;4.20;1.90;;;3.60;99.90;;;;;;20872604;28;20087;-78
2023/03/27 20:14:01;;;;;;;7.00;2.17;;;3.50;99.90;;;;;;20868595;28;20029;-78
2023/03/27 20:24:04;;;;;;;3.55;2.00;;;3.30;99.90;;;;;;20854191;28;20068;-78
2023/03/27 20:34:09;;;;;;;4.30;2.22;;;3.40;99.90;;;;;;20873129;28;20056;-78
2023/03/27 20:44:15;;;;;;;4.00;2.10;;;3.20;99.90;;;;;;20874105;28;20029;-78
2023/03/27 20:54:17;;;;;;;5.85;3.00;;;3.20;99.90;;;;;;20910476;28;20025;-79
2023/03/27 21:04:20;;;;;;;6.57;3.45;;;3.30;99.90;;;;;;20889294;28;20056;-80
2023/03/27 21:14:21;;;;;;;14.13;6.78;;;3.20;99.90;;;;;;20886932;28;20075;-78
2023/03/27 21:24:22;;;;;;;15.30;8.32;;;2.90;99.90;;;;;;20846714;28;20036;-78
2023/03/27 21:34:24;;;;;;;15.45;8.02;;;2.80;99.90;;;;;;20880450;28;21096;-78
2023/03/27 21:44:25;;;;;;;9.82;4.70;;;2.90;99.90;;;;;;20878785;28;20510;-77
2023/03/27 21:54:25;;;;;;;7.25;3.88;;;2.80;99.90;;;;;;20879942;28;20120;-78
2023/03/27 22:04:26;;;;;;;7.15;3.35;;;2.80;99.90;;;;;;20886104;28;20044;-78
2023/03/27 22:14:27;;;;;;;5.72;3.10;;;2.80;99.90;;;;;;20885864;28;20037;-78
2023/03/27 22:24:29;;;;;;;4.28;2.70;;;2.90;99.90;;;;;;20881854;28;20066;-77
2023/03/27 22:34:30;;;;;;;4.85;2.40;;;2.70;99.90;;;;;;20877605;28;20033;-78
2023/03/27 22:44:31;;;;;;;4.43;2.17;;;2.80;99.90;;;;;;20905603;23;20506;-79
2023/03/27 22:54:32;;;;;;;4.68;2.17;;;2.80;99.90;;;;;;20883798;28;20040;-79
2023/03/27 23:04:32;;;;;;;4.40;2.22;;;2.80;99.90;;;;;;20844694;28;20047;-79
2023/03/27 23:14:33;;;;;;;9.35;2.90;;;2.90;99.90;;;;;;20839351;28;20117;-79
2023/03/27 23:24:34;;;;;;;4.53;2.80;;;3.00;99.90;;;;;;20836882;28;20032;-79
2023/03/27 23:34:35;;;;;;;6.53;2.78;;;3.10;99.90;;;;;;20833934;28;20451;-79
2023/03/27 23:44:35;;;;;;;5.72;2.38;;;3.00;99.90;;;;;;20831363;28;20377;-79
2023/03/27 23:54:36;;;;;;;7.70;2.92;;;2.90;99.90;;;;;;20828459;28;20037;-80
